»·PEaware :: DAL1750 KSAN-KLAX

DAL1750 :: KSAN-KLAX

FLIGHT INFORMATION

Flight Status: Arrived
Operator:
Delta Air Lines
More flights by this operator :: More flights under this callsign
Pilot: Nick H. (20109)
Aircraft: BOEING 737-800
(B738)
More flights by this aircraft type
Origin: KSAN San Diego Intl-Lindbergh
United States
Destination: KLAX Los Angeles Intl
United States
More flights between these airports :: More routes between these airports
Route: +FALCC1 SLI
File this flight plan on PilotEdge
Remarks:
Altitude:
(Current/Filed)
10,000ft
Speed:
(Current/Filed)
250kts
Departed: 06-Dec-18 01:08 PM
Arrived: 06-Dec-18 01:40 PM
Distance/Time
Traveled:
95nm/0:32
Distance/Time
To Go:
Arrived

Flight Plot

Page will automatically refresh every two minutes.

Flight plan parsing failed; only flown route is shown


Map Options




Map Legend


Flown Route
Filed Route
Departure Airport
Arrival Airport
Navaid (VOR, NDB)
Fix

Horizontal Profiles

Position Reports

Time Latitude Longitude Heading Altitude Ground
Speed
06-Dec-18 12:43 32.732478 -117.205365 174 17ft 0kts
06-Dec-18 12:44 32.732478 -117.205365 174 17ft 0kts
06-Dec-18 12:45 32.732478 -117.205365 174 17ft 0kts
06-Dec-18 12:46 32.732478 -117.205365 174 17ft 0kts
06-Dec-18 12:47 32.732478 -117.205365 174 17ft 0kts
06-Dec-18 12:48 32.732478 -117.205365 174 17ft 0kts
06-Dec-18 12:49 32.732478 -117.205365 174 17ft 0kts
06-Dec-18 12:50 32.732478 -117.205365 174 17ft 0kts
06-Dec-18 12:51 32.732478 -117.205365 174 17ft 0kts
06-Dec-18 12:52 32.732478 -117.205365 174 17ft 0kts
06-Dec-18 12:53 32.732478 -117.205365 174 17ft 0kts
06-Dec-18 12:54 32.732478 -117.205365 174 17ft 0kts
06-Dec-18 12:55 32.732478 -117.205365 174 17ft 0kts
06-Dec-18 12:56 32.732478 -117.205365 174 17ft 0kts
06-Dec-18 12:57 32.732820 -117.205453 150 17ft 2kts
06-Dec-18 12:58 32.733245 -117.205945 117 17ft 2kts
06-Dec-18 12:59 32.733279 -117.206171 84 17ft 0kts
06-Dec-18 13:00 32.733279 -117.206171 84 17ft 0kts
06-Dec-18 13:01 32.733279 -117.206171 84 17ft 0kts
06-Dec-18 13:02 32.733298 -117.206003 78 17ft 0kts
06-Dec-18 13:03 32.735859 -117.204254 28 17ft 11kts
06-Dec-18 13:04 32.736077 -117.204125 18 17ft 0kts
06-Dec-18 13:05 32.736934 -117.203705 103 17ft 0kts
06-Dec-18 13:06 32.736929 -117.203680 103 17ft 2kts
06-Dec-18 13:07 32.728778 -117.171327 109 608ft 155kts
06-Dec-18 13:08 32.716655 -117.120665 106 2641ft 163kts
06-Dec-18 13:09 32.704281 -117.065043 106 3978ft 206kts
06-Dec-18 13:10 32.738084 -117.010657 353 5211ft 303kts
06-Dec-18 13:11 32.806491 -117.069220 315 8050ft 308kts
06-Dec-18 13:12 32.868877 -117.137203 314 10005ft 300kts
06-Dec-18 13:13 32.930074 -117.204094 313 10040ft 299kts
06-Dec-18 13:14 32.991509 -117.271403 313 10036ft 301kts
06-Dec-18 13:15 33.053256 -117.339193 313 10031ft 303kts
06-Dec-18 13:16 33.114185 -117.406206 314 10029ft 306kts
06-Dec-18 13:17 33.175415 -117.473656 314 10041ft 306kts
06-Dec-18 13:18 33.237895 -117.542585 314 10014ft 306kts
06-Dec-18 13:19 33.302900 -117.607688 320 10017ft 308kts
06-Dec-18 13:20 33.370114 -117.669326 318 10015ft 306kts
06-Dec-18 13:21 33.437048 -117.731370 318 10009ft 304kts
06-Dec-18 13:22 33.503623 -117.793255 318 10003ft 301kts
06-Dec-18 13:23 33.569540 -117.854677 318 10000ft 301kts
06-Dec-18 13:24 33.635768 -117.916549 318 10000ft 304kts
06-Dec-18 13:25 33.702780 -117.979277 319 10001ft 307kts
06-Dec-18 13:26 33.770060 -118.042478 317 10001ft 308kts
06-Dec-18 13:27 33.813214 -118.128714 291 10018ft 303kts
06-Dec-18 13:28 33.849099 -118.220186 292 10016ft 304kts
06-Dec-18 13:29 33.882854 -118.309768 274 9034ft 270kts
06-Dec-18 13:30 33.867047 -118.395066 261 8090ft 261kts
06-Dec-18 13:31 33.856543 -118.481081 262 7805ft 264kts
06-Dec-18 13:32 33.845014 -118.567535 262 6067ft 259kts
06-Dec-18 13:33 33.835087 -118.651238 289 4134ft 256kts
06-Dec-18 13:34 33.889791 -118.656504 48 3231ft 259kts
06-Dec-18 13:35 33.917058 -118.578339 77 2073ft 261kts
06-Dec-18 13:36 33.925631 -118.499124 79 1475ft 210kts
06-Dec-18 13:37 33.931331 -118.442216 80 541ft 148kts
06-Dec-18 13:38 33.935642 -118.399793 78 115ft 57kts
06-Dec-18 13:39 33.936905 -118.396380 25 109ft 0kts
06-Dec-18 13:40 33.937378 -118.394033 61 107ft 0kts
06-Dec-18 13:41 33.939341 -118.394491 262 108ft 19kts
06-Dec-18 13:42 33.938639 -118.401333 262 118ft 20kts
06-Dec-18 13:44 33.937881 -118.408755 261 126ft 24kts
06-Dec-18 13:45 33.941918 -118.412055 352 122ft 23kts
06-Dec-18 13:46 33.947022 -118.412384 66 122ft 15kts
06-Dec-18 13:47 33.946269 -118.408799 91 122ft 7kts

Navigation Log

Ident Type
Flight plan parsing failed, navigation log unavailable